Ana Sayfa
METAR-TAF:

METAR-TAF

Havaalanları :

Stennis International Airport

Bay St. Louis, Mississipi, Amerika Birleşik Devletleri

Enlem: 30-22-04N, Boylam: 089-27-17W, yükseklik: 7 m

Güncel hava durumu gözlemi

Rapor saat 16:55 UTC de 37 dakika önce yapıldı.
Rüzgar batıdan 5 kt
Sıcaklık 32°C
Nem 67%
Basınç 1015 hPa
Görüş mesafesi: 16.1 km
2900 ft yükseklikte parçalı bulutlu

METAR: KHSA 251655Z 27005KT 10SM SCT029 32/25 A2998

Saat: 12:32 (17:32 UTC)


TAF: eksik

4.000'den fazla havaalanı için hava durumu gözlemleri ve tahminleri (METAR ve TAF raporları).

Kullanılabilir istasyonlar harita üzerinde sarı ve kırmızı noktalarla gösterilir.

İstasyonun adını görmek için fareyi noktanın üzerinde gezdirin.

Sonrasında hava gözlem ve tahminlerini görmek için tıklayın.

Haritayı değiştirmek için: yaklaştırmak için siyah artı işaretli yeşil düğmeye ve uzaklaştırmak için de eksi işaretli düğmeye hızla tıklayın; bitişik haritalar için yeşil okları kullanın.


METAR-TAF: